Time;durP1;ratioP1;P1;durP2;ratioP2;P2;SDS_P1;SDS_P2;PMS_P1;PMS_P2;Temp;Humidity;BMP_temperature;BMP_pressure;BME280_temperature;BME280_humidity;BME280_pressure;Samples;Min_cycle;Max_cycle;Signal;HPM_P1;HPM_P2
2023/02/16 00:01:34;;;;;;;46.88;38.00;;;-0.60;99.90;;;;;;5028319;28;20444;-80
2023/02/16 00:04:01;;;;;;;46.67;37.90;;;-0.60;99.90;;;;;;5025302;28;20382;-80
2023/02/16 00:06:28;;;;;;;48.40;37.97;;;-0.60;99.90;;;;;;5046245;28;20435;-80
2023/02/16 00:08:55;;;;;;;49.47;39.80;;;-0.50;99.90;;;;;;5047158;28;20465;-81
2023/02/16 00:14:13;;;;;;;43.83;37.45;;;-0.70;99.90;;;;;;5028996;28;20445;-81
2023/02/16 00:16:39;;;;;;;42.00;35.00;;;-0.60;99.90;;;;;;5026501;28;20886;-81
2023/02/16 00:19:17;;;;;;;42.92;35.13;;;-0.60;99.90;;;;;;5027446;28;20872;-81
2023/02/16 00:21:43;;;;;;;40.88;35.25;;;-0.70;99.90;;;;;;5027666;28;20478;-80
2023/02/16 00:24:09;;;;;;;42.08;34.78;;;-0.70;99.90;;;;;;5025852;28;20468;-80
2023/02/16 00:26:35;;;;;;;44.88;36.65;;;-0.60;99.90;;;;;;5027184;28;20389;-82
2023/02/16 00:29:00;;;;;;;47.10;37.38;;;-0.60;99.90;;;;;;5026901;28;20408;-81
2023/02/16 00:31:31;;;;;;;45.90;37.13;;;-0.70;99.90;;;;;;5026709;28;20394;-81
2023/02/16 00:34:03;;;;;;;50.03;39.08;;;-0.90;99.90;;;;;;5028993;28;20377;-81
2023/02/16 00:36:29;;;;;;;51.00;40.17;;;-1.00;99.90;;;;;;5014802;28;20417;-80
2023/02/16 00:38:55;;;;;;;54.77;41.43;;;-1.10;99.90;;;;;;5010332;28;20484;-81
2023/02/16 00:44:18;;;;;;;52.78;40.80;;;-1.10;99.90;;;;;;5028808;28;20837;-81
2023/02/16 00:46:46;;;;;;;49.92;38.38;;;-1.00;99.90;;;;;;5027390;28;20752;-81
2023/02/16 00:49:17;;;;;;;47.58;39.03;;;-1.10;99.90;;;;;;5024251;28;20408;-81
2023/02/16 00:51:43;;;;;;;52.70;39.93;;;-0.90;99.90;;;;;;5029422;28;20891;-81
2023/02/16 00:54:09;;;;;;;56.05;40.85;;;-0.80;99.90;;;;;;5029520;28;20405;-81
2023/02/16 00:56:36;;;;;;;104.15;47.47;;;-0.90;99.90;;;;;;5028898;28;20385;-82
2023/02/16 00:59:03;;;;;;;55.60;40.65;;;-0.80;99.90;;;;;;5028790;28;20397;-80
2023/02/16 01:01:31;;;;;;;52.70;39.83;;;-0.80;99.90;;;;;;5030037;28;20393;-80
2023/02/16 01:04:03;;;;;;;53.35;40.00;;;-0.80;99.90;;;;;;5029835;28;20381;-80
2023/02/16 01:12:01;;;;;;;56.53;42.08;;;-0.70;99.90;;;;;;5027715;28;20494;-80
2023/02/16 01:14:28;;;;;;;54.90;40.40;;;-0.80;99.90;;;;;;5029466;28;20381;-80
2023/02/16 01:16:54;;;;;;;59.95;42.83;;;-0.80;99.90;;;;;;5030204;28;20885;-80
2023/02/16 01:19:20;;;;;;;61.55;42.90;;;-0.80;99.90;;;;;;5030205;28;20389;-80
2023/02/16 01:21:46;;;;;;;67.10;46.15;;;-0.90;99.90;;;;;;5013558;28;20409;-80
2023/02/16 01:24:11;;;;;;;64.77;44.30;;;-0.80;99.90;;;;;;5029368;28;20896;-81
2023/02/16 01:26:40;;;;;;;68.55;45.97;;;-1.00;99.90;;;;;;5028747;28;20887;-80
2023/02/16 01:29:11;;;;;;;68.82;47.20;;;-1.00;99.90;;;;;;5028573;28;20964;-81
2023/02/16 01:31:37;;;;;;;59.00;44.10;;;-1.00;99.90;;;;;;5030324;28;20489;-80
2023/02/16 01:34:03;;;;;;;64.30;44.53;;;-1.00;99.90;;;;;;5031235;28;20385;-82
2023/02/16 01:36:43;;;;;;;65.60;44.20;;;-1.00;99.90;;;;;;5028999;28;20400;-81
2023/02/16 01:39:15;;;;;;;63.40;44.17;;;-1.00;99.90;;;;;;5028225;28;20386;-80
2023/02/16 01:42:08;;;;;;;58.92;42.42;;;-1.10;99.90;;;;;;5028808;28;20397;-81
2023/02/16 01:44:44;;;;;;;60.08;43.53;;;-1.10;99.90;;;;;;5029356;28;20389;-81
2023/02/16 01:47:28;;;;;;;56.50;43.05;;;-1.10;99.90;;;;;;5027965;28;20393;-81
2023/02/16 01:49:54;;;;;;;57.72;42.75;;;-1.20;99.90;;;;;;5027622;28;20407;-80
2023/02/16 01:52:42;;;;;;;57.67;43.28;;;-1.20;99.90;;;;;;5029491;28;20409;-81
2023/02/16 01:55:23;;;;;;;64.90;47.17;;;-1.20;99.90;;;;;;5029587;28;20468;-80
2023/02/16 01:58:13;;;;;;;64.03;46.90;;;-1.30;99.90;;;;;;5028213;28;20484;-81
2023/02/16 02:00:48;;;;;;;69.10;49.10;;;-1.30;99.90;;;;;;4988318;28;20410;-80
2023/02/16 02:06:13;;;;;;;60.70;46.70;;;-1.20;99.90;;;;;;5030249;28;20480;-80
2023/02/16 02:09:47;;;;;;;64.83;48.50;;;-1.20;99.90;;;;;;4996874;28;20403;-81
2023/02/16 02:12:56;;;;;;;59.58;45.13;;;-1.10;99.90;;;;;;4929104;28;20470;-81
2023/02/16 02:15:27;;;;;;;60.67;46.25;;;-1.00;99.90;;;;;;4987837;28;20394;-81
2023/02/16 02:17:52;;;;;;;64.45;47.67;;;-1.10;99.90;;;;;;5028031;28;20551;-83
2023/02/16 02:23:29;;;;;;;62.78;47.08;;;-1.10;99.90;;;;;;5028200;28;20932;-81
2023/02/16 02:23:30;;;;;;;62.78;47.83;;;-1.30;99.90;;;;;;5030385;28;20378;-81
2023/02/16 02:26:05;;;;;;;59.75;44.72;;;-1.20;99.90;;;;;;5029220;28;20708;-81
2023/02/16 02:28:33;;;;;;;67.90;49.47;;;-1.20;99.90;;;;;;5029628;28;20448;-80
2023/02/16 02:31:26;;;;;;;72.65;51.00;;;-1.30;99.90;;;;;;5028988;28;20398;-81
2023/02/16 02:34:21;;;;;;;78.78;54.83;;;-1.40;99.90;;;;;;5028487;28;20389;-80
2023/02/16 02:36:46;;;;;;;74.95;51.95;;;-1.60;99.90;;;;;;5026926;28;20750;-80
2023/02/16 02:39:24;;;;;;;72.97;52.67;;;-1.50;99.90;;;;;;5029348;28;20884;-80
2023/02/16 02:42:07;;;;;;;69.63;50.75;;;-1.60;99.90;;;;;;5028514;28;20717;-80
2023/02/16 02:44:48;;;;;;;63.45;47.05;;;-1.60;99.90;;;;;;5029328;28;20386;-81
2023/02/16 02:47:14;;;;;;;67.40;50.00;;;-1.60;99.90;;;;;;5261276;23;20652;-79
2023/02/16 02:49:47;;;;;;;64.75;49.13;;;-1.60;99.90;;;;;;5007461;28;20431;-80
2023/02/16 02:52:16;;;;;;;60.08;46.63;;;-1.50;99.90;;;;;;5011393;28;20388;-80
2023/02/16 03:00:43;;;;;;;60.17;46.10;;;-1.60;99.90;;;;;;5008892;28;20441;-78
2023/02/16 03:03:13;;;;;;;56.47;44.53;;;-1.60;99.90;;;;;;5010131;28;20449;-80
2023/02/16 03:05:43;;;;;;;53.08;42.53;;;-1.50;99.90;;;;;;5008610;28;20406;-81
2023/02/16 03:08:16;;;;;;;54.08;43.45;;;-1.50;99.90;;;;;;5008730;28;20939;-79
2023/02/16 03:13:44;;;;;;;58.00;45.38;;;-1.50;99.90;;;;;;5009113;28;20457;-79
2023/02/16 03:16:15;;;;;;;63.73;47.23;;;-1.70;99.90;;;;;;5010154;28;20911;-80
2023/02/16 03:29:50;;;;;;;61.92;46.10;;;-1.70;99.90;;;;;;5009162;28;20422;-79
2023/02/16 03:32:16;;;;;;;62.37;46.63;;;-1.80;99.90;;;;;;5009063;28;20384;-80
2023/02/16 03:34:42;;;;;;;58.15;44.58;;;-1.80;99.90;;;;;;5007482;28;20643;-80
2023/02/16 03:37:09;;;;;;;49.92;40.08;;;-1.80;99.90;;;;;;5007267;28;20410;-80
2023/02/16 03:40:26;;;;;;;55.00;42.03;;;-1.70;99.90;;;;;;5008568;28;20711;-80
2023/02/16 03:42:22;;;;;;;51.28;40.90;;;-1.70;99.90;;;;;;5009618;28;20387;-80
2023/02/16 03:44:51;;;;;;;50.33;39.70;;;-1.80;99.90;;;;;;5007380;28;20965;-80
2023/02/16 03:47:17;;;;;;;52.20;40.77;;;-1.70;99.90;;;;;;5008563;28;20482;-80
2023/02/16 03:49:42;;;;;;;47.75;38.30;;;-1.70;99.90;;;;;;5010047;28;20830;-80
2023/02/16 03:52:11;;;;;;;46.13;37.73;;;-1.70;99.90;;;;;;5009082;28;20442;-81
2023/02/16 03:54:36;;;;;;;46.33;38.72;;;-1.70;99.90;;;;;;5006087;28;20403;-80
2023/02/16 03:57:02;;;;;;;48.08;37.38;;;-1.70;99.90;;;;;;5008333;28;20407;-82
2023/02/16 03:59:28;;;;;;;46.90;38.00;;;-1.80;99.90;;;;;;5009356;28;20869;-81
2023/02/16 04:01:54;;;;;;;46.58;37.28;;;-1.80;99.90;;;;;;5006745;28;20387;-81
2023/02/16 04:04:19;;;;;;;47.47;37.42;;;-1.70;99.90;;;;;;5009351;28;20387;-82
2023/02/16 04:06:45;;;;;;;48.70;38.42;;;-1.70;99.90;;;;;;5009227;28;20379;-81
2023/02/16 04:09:11;;;;;;;46.78;37.58;;;-1.70;99.90;;;;;;5007171;28;20392;-81
2023/02/16 04:14:22;;;;;;;43.13;35.50;;;-1.80;99.90;;;;;;5009605;28;20406;-79
2023/02/16 04:16:48;;;;;;;42.92;35.03;;;-1.70;99.90;;;;;;5008452;28;20395;-81
2023/02/16 04:19:14;;;;;;;41.05;34.90;;;-1.60;99.90;;;;;;5008591;28;20421;-81
2023/02/16 04:21:41;;;;;;;44.10;36.97;;;-1.70;99.90;;;;;;5008245;28;20406;-80
2023/02/16 04:24:07;;;;;;;48.10;38.17;;;-1.80;99.90;;;;;;4998556;28;20450;-80
2023/02/16 04:26:33;;;;;;;47.03;38.20;;;-1.90;99.90;;;;;;5011196;28;20407;-80
2023/02/16 04:28:59;;;;;;;41.45;35.45;;;-1.90;99.90;;;;;;5010385;28;20557;-78
2023/02/16 04:31:24;;;;;;;45.38;37.55;;;-1.80;99.90;;;;;;5012359;28;20414;-80
2023/02/16 04:33:50;;;;;;;44.70;36.17;;;-1.70;99.90;;;;;;5010271;28;20974;-79
2023/02/16 04:36:16;;;;;;;41.40;34.20;;;-1.70;99.90;;;;;;5012805;28;21021;-81
2023/02/16 04:38:41;;;;;;;40.80;34.40;;;-1.70;99.90;;;;;;5012565;28;20396;-79
2023/02/16 04:41:07;;;;;;;44.03;35.93;;;-1.70;99.90;;;;;;5011498;28;20935;-80
2023/02/16 04:43:33;;;;;;;44.20;35.67;;;-1.60;99.90;;;;;;4994312;28;20916;-81
2023/02/16 04:45:59;;;;;;;45.07;36.30;;;-1.80;99.90;;;;;;5013916;28;20717;-81
2023/02/16 04:48:25;;;;;;;41.08;34.55;;;-1.80;99.90;;;;;;5012771;28;20376;-80
2023/02/16 04:50:51;;;;;;;41.78;35.25;;;-1.70;99.90;;;;;;5011700;28;20497;-81
2023/02/16 04:53:17;;;;;;;47.10;37.90;;;-1.60;99.90;;;;;;5008599;28;20494;-80
2023/02/16 04:55:47;;;;;;;42.17;36.67;;;-1.80;99.90;;;;;;5010948;28;20509;-81
2023/02/16 04:58:16;;;;;;;47.92;38.80;;;-1.70;99.90;;;;;;5011934;28;20375;-79
2023/02/16 05:00:42;;;;;;;45.72;37.42;;;-1.80;99.90;;;;;;4993610;28;20875;-80
2023/02/16 05:03:11;;;;;;;49.00;39.30;;;-1.80;99.90;;;;;;5010681;28;20498;-80
2023/02/16 05:05:37;;;;;;;43.65;36.28;;;-1.80;99.90;;;;;;5012000;28;20462;-80
2023/02/16 05:08:03;;;;;;;48.88;39.70;;;-1.70;99.90;;;;;;5009317;28;20960;-79
2023/02/16 05:10:31;;;;;;;42.88;36.05;;;-1.70;99.90;;;;;;5009642;28;20805;-81
2023/02/16 05:15:52;;;;;;;50.40;40.08;;;-1.80;99.90;;;;;;5010671;28;20394;-81
2023/02/16 05:18:17;;;;;;;50.42;40.22;;;-2.00;99.90;;;;;;5008421;28;20406;-80
2023/02/16 05:23:29;;;;;;;43.55;35.58;;;-2.00;99.90;;;;;;5011857;28;20734;-79
2023/02/16 05:25:55;;;;;;;46.33;36.92;;;-1.90;99.90;;;;;;5010589;28;20457;-79
2023/02/16 05:28:21;;;;;;;45.00;36.72;;;-1.80;99.90;;;;;;5009786;28;20793;-80
2023/02/16 05:30:46;;;;;;;44.20;35.33;;;-1.80;99.90;;;;;;5010269;28;20415;-79
2023/02/16 05:33:12;;;;;;;49.65;38.70;;;-1.80;99.90;;;;;;5011416;28;20390;-80
2023/02/16 05:35:38;;;;;;;48.47;39.10;;;-1.90;99.90;;;;;;5010845;28;20382;-81
2023/02/16 05:38:04;;;;;;;48.03;38.58;;;-2.00;99.90;;;;;;5008492;28;20770;-81
2023/02/16 05:40:29;;;;;;;51.00;40.60;;;-2.10;99.90;;;;;;5011197;28;20375;-81
2023/02/16 05:42:55;;;;;;;48.33;39.23;;;-2.00;99.90;;;;;;5008138;28;20426;-80
2023/02/16 05:45:21;;;;;;;54.25;41.28;;;-2.10;99.90;;;;;;5024934;28;20473;-80
2023/02/16 05:47:47;;;;;;;47.47;38.25;;;-2.10;99.90;;;;;;5010168;28;20415;-79
2023/02/16 05:50:12;;;;;;;49.07;39.10;;;-2.10;99.90;;;;;;5010642;28;20399;-80
2023/02/16 05:52:38;;;;;;;48.93;40.07;;;-1.90;99.90;;;;;;5010693;28;20482;-82
2023/02/16 05:55:04;;;;;;;51.17;40.07;;;-2.00;99.90;;;;;;5006966;28;20414;-80
2023/02/16 05:57:33;;;;;;;47.88;38.75;;;-2.00;99.90;;;;;;5008624;28;20532;-80
2023/02/16 05:59:59;;;;;;;47.95;38.40;;;-2.00;99.90;;;;;;4991958;28;20890;-81
2023/02/16 06:02:25;;;;;;;50.70;40.72;;;-2.00;99.90;;;;;;5009169;28;20403;-80
2023/02/16 06:04:50;;;;;;;52.72;41.25;;;-2.00;99.90;;;;;;5010162;28;20395;-80
2023/02/16 06:07:16;;;;;;;52.90;42.10;;;-2.00;99.90;;;;;;5007810;28;20403;-81
2023/02/16 06:09:42;;;;;;;52.75;41.70;;;-2.00;99.90;;;;;;5009460;28;20407;-79
2023/02/16 06:12:10;;;;;;;52.97;41.50;;;-2.00;99.90;;;;;;5010271;28;20374;-80
2023/02/16 06:14:35;;;;;;;58.80;44.80;;;-2.10;99.90;;;;;;5008984;28;20398;-81
2023/02/16 06:17:01;;;;;;;51.70;41.17;;;-2.20;99.90;;;;;;5008444;28;20866;-78
2023/02/16 06:19:27;;;;;;;52.42;41.85;;;-2.10;99.90;;;;;;5009075;28;20390;-80
2023/02/16 06:21:53;;;;;;;57.88;43.20;;;-2.00;99.90;;;;;;5008281;28;20387;-80
2023/02/16 06:24:18;;;;;;;54.85;43.33;;;-2.20;99.90;;;;;;5010549;28;20399;-79
2023/02/16 06:26:44;;;;;;;54.42;41.58;;;-2.30;99.90;;;;;;5008407;28;20497;-78
2023/02/16 06:29:10;;;;;;;58.88;44.75;;;-2.20;99.90;;;;;;5011581;28;20857;-79
2023/02/16 06:31:36;;;;;;;58.85;43.00;;;-2.30;99.90;;;;;;5009523;28;20407;-80
2023/02/16 06:34:03;;;;;;;55.35;44.30;;;-2.40;99.90;;;;;;5010041;28;20466;-79
2023/02/16 06:36:28;;;;;;;54.22;42.85;;;-2.30;99.90;;;;;;5011443;28;20461;-81
2023/02/16 06:38:54;;;;;;;57.05;44.15;;;-2.20;99.90;;;;;;5010051;28;20882;-78
2023/02/16 06:41:38;;;;;;;55.80;42.97;;;-2.20;99.90;;;;;;5009934;28;20403;-79
2023/02/16 06:44:08;;;;;;;55.20;42.08;;;-2.00;99.90;;;;;;5008205;28;20425;-78
2023/02/16 06:46:34;;;;;;;50.53;39.90;;;-1.90;99.90;;;;;;5008563;28;20402;-80
2023/02/16 06:49:00;;;;;;;57.05;44.97;;;-1.70;99.90;;;;;;5007653;28;20486;-82
2023/02/16 06:51:26;;;;;;;50.17;39.63;;;-1.70;99.90;;;;;;5007034;28;20442;-81
2023/02/16 06:53:52;;;;;;;52.03;41.72;;;-1.60;99.90;;;;;;5006227;28;20422;-81
2023/02/16 06:56:18;;;;;;;54.95;44.45;;;-1.40;99.90;;;;;;5007568;28;20399;-80
2023/02/16 06:58:43;;;;;;;55.95;43.40;;;-1.30;99.90;;;;;;5004205;28;20411;-81
2023/02/16 07:01:10;;;;;;;58.80;44.05;;;-1.40;99.90;;;;;;5007494;28;20474;-80
2023/02/16 07:03:36;;;;;;;63.65;47.97;;;-1.20;99.90;;;;;;5009413;28;20383;-81
2023/02/16 07:06:01;;;;;;;59.63;45.53;;;-1.20;99.90;;;;;;5007933;28;20386;-81
2023/02/16 07:08:27;;;;;;;63.77;47.37;;;-1.10;99.90;;;;;;5007607;28;20857;-81
2023/02/16 07:10:54;;;;;;;60.47;45.40;;;-0.90;99.90;;;;;;5009303;28;20407;-81
2023/02/16 07:13:20;;;;;;;58.13;44.65;;;-0.70;99.90;;;;;;5007739;28;20874;-80
2023/02/16 07:15:45;;;;;;;59.10;44.85;;;-0.60;99.90;;;;;;5008898;28;20441;-81
2023/02/16 07:18:11;;;;;;;56.38;43.40;;;-0.40;99.90;;;;;;5008213;28;20517;-81
2023/02/16 07:20:37;;;;;;;56.77;42.83;;;-0.20;99.90;;;;;;5009246;28;20839;-81
2023/02/16 07:23:03;;;;;;;54.83;42.37;;;-0.10;99.90;;;;;;5009260;28;20391;-80
2023/02/16 07:25:29;;;;;;;49.45;37.85;;;0.20;99.90;;;;;;5008934;28;20399;-81
2023/02/16 07:27:55;;;;;;;48.47;38.38;;;0.40;99.90;;;;;;5008418;28;20375;-81
2023/02/16 07:30:21;;;;;;;44.15;35.67;;;0.70;99.90;;;;;;5008841;28;20897;-81
2023/02/16 07:32:47;;;;;;;45.22;36.90;;;0.90;99.90;;;;;;5008031;28;20703;-81
2023/02/16 07:35:13;;;;;;;44.35;36.60;;;1.10;99.90;;;;;;5006685;28;20391;-80
2023/02/16 07:37:38;;;;;;;43.17;34.70;;;1.30;99.90;;;;;;5008240;28;20445;-81
2023/02/16 07:40:05;;;;;;;44.63;36.05;;;1.30;99.90;;;;;;5005967;28;20774;-80
2023/02/16 07:42:35;;;;;;;43.95;34.97;;;1.40;99.90;;;;;;5008526;28;20401;-80
2023/02/16 07:45:01;;;;;;;43.92;35.65;;;1.40;99.90;;;;;;5006052;28;20502;-81
2023/02/16 07:47:26;;;;;;;41.50;34.08;;;1.50;99.90;;;;;;5007472;28;20913;-79
2023/02/16 07:49:52;;;;;;;42.20;35.33;;;1.70;99.90;;;;;;5004106;28;20461;-80
2023/02/16 07:52:18;;;;;;;38.30;32.38;;;1.80;99.90;;;;;;5004770;28;20399;-80
2023/02/16 07:54:43;;;;;;;45.87;35.40;;;2.00;99.90;;;;;;5006561;28;20391;-81
2023/02/16 07:57:09;;;;;;;38.57;33.43;;;2.00;99.90;;;;;;5005472;28;20465;-80
2023/02/16 07:59:35;;;;;;;43.70;35.57;;;1.90;99.90;;;;;;5001931;28;20536;-81
2023/02/16 08:02:01;;;;;;;41.42;34.00;;;1.80;99.90;;;;;;4997090;28;20402;-81
2023/02/16 08:04:26;;;;;;;41.85;34.35;;;1.90;99.90;;;;;;5004184;28;20368;-81
2023/02/16 08:06:52;;;;;;;41.72;34.72;;;2.00;99.90;;;;;;5007166;28;20525;-81
2023/02/16 08:09:18;;;;;;;47.78;37.90;;;1.90;99.90;;;;;;5011713;28;20794;-81
2023/02/16 08:11:44;;;;;;;49.58;38.78;;;1.80;99.90;;;;;;5011255;28;20877;-80
2023/02/16 08:14:10;;;;;;;46.60;37.50;;;1.70;99.90;;;;;;4991574;28;20402;-79
2023/02/16 08:16:36;;;;;;;47.70;38.27;;;1.90;99.90;;;;;;5012266;28;20449;-79
2023/02/16 08:19:05;;;;;;;48.35;38.92;;;2.00;99.90;;;;;;5009610;28;20410;-80
2023/02/16 08:21:33;;;;;;;46.10;37.42;;;2.00;99.90;;;;;;4994515;28;20390;-80
2023/02/16 08:24:04;;;;;;;49.05;39.63;;;2.30;99.90;;;;;;5011642;28;20382;-83
2023/02/16 08:26:42;;;;;;;53.95;40.28;;;2.40;99.90;;;;;;5013038;28;20513;-84
2023/02/16 08:29:17;;;;;;;50.72;40.30;;;2.50;99.90;;;;;;5010459;28;20401;-83
2023/02/16 08:35:16;;;;;;;48.83;37.03;;;2.80;99.90;;;;;;5012625;28;20783;-85
2023/02/16 08:38:03;;;;;;;;;;;;;;;;;;;;;
2023/02/16 08:40:38;;;;;;;35.05;30.52;;;3.30;99.90;;;;;;5010141;28;20433;-84
2023/02/16 08:43:10;;;;;;;44.95;34.78;;;3.80;99.90;;;;;;4993749;28;20393;-83
2023/02/16 08:45:44;;;;;;;51.08;39.60;;;4.00;99.90;;;;;;5011446;28;21038;-83
2023/02/16 08:48:13;;;;;;;42.47;33.53;;;4.30;99.90;;;;;;5012094;28;20536;-84
2023/02/16 08:50:52;;;;;;;51.83;39.80;;;4.40;99.90;;;;;;5010881;28;20442;-82
2023/02/16 08:53:20;;;;;;;36.88;29.17;;;4.80;99.90;;;;;;5019600;28;20390;-85
2023/02/16 08:56:31;;;;;;;;;;;;;;;;;;;;;
2023/02/16 08:58:57;;;;;;;42.95;33.20;;;5.30;99.90;;;;;;5010139;28;20390;-82
2023/02/16 09:01:41;;;;;;;40.13;32.28;;;5.50;99.90;;;;;;5011207;28;20386;-83
2023/02/16 09:04:06;;;;;;;32.37;24.97;;;5.60;99.90;;;;;;5012094;28;20762;-84
2023/02/16 09:06:36;;;;;;;32.67;26.07;;;5.50;99.90;;;;;;5018625;28;20392;-84
2023/02/16 09:09:03;;;;;;;32.35;25.13;;;5.60;99.90;;;;;;5030652;28;20436;-87
2023/02/16 09:11:32;;;;;;;31.67;25.80;;;6.00;99.90;;;;;;5022663;28;20432;-85
2023/02/16 09:13:58;;;;;;;30.63;25.10;;;6.20;99.90;;;;;;5022926;28;20414;-87
2023/02/16 09:16:26;;;;;;;38.20;31.15;;;6.40;99.90;;;;;;5011409;28;20422;-87
2023/02/16 09:18:52;;;;;;;36.43;29.43;;;6.90;99.90;;;;;;5002618;28;20403;-86
2023/02/16 09:21:24;;;;;;;29.85;24.02;;;7.40;99.90;;;;;;5014431;28;20417;-87
2023/02/16 09:23:53;;;;;;;30.95;25.88;;;7.20;99.90;;;;;;5007119;28;20403;-88
2023/02/16 09:26:23;;;;;;;31.13;25.77;;;7.90;99.90;;;;;;5001733;28;20846;-85
2023/02/16 09:28:58;;;;;;;32.10;25.92;;;8.20;99.90;;;;;;5016129;28;20399;-84
2023/02/16 09:31:27;;;;;;;32.75;26.27;;;8.20;99.90;;;;;;5012027;28;20410;-86
2023/02/16 09:34:03;;;;;;;29.05;23.77;;;7.80;99.90;;;;;;5007232;28;20411;-85
2023/02/16 09:36:33;;;;;;;28.10;23.05;;;8.30;99.90;;;;;;5006938;28;20399;-83
2023/02/16 09:38:59;;;;;;;32.20;25.02;;;8.80;99.90;;;;;;5008676;28;20939;-87
2023/02/16 09:41:34;;;;;;;29.52;23.27;;;9.50;99.90;;;;;;5005724;28;20406;-85
2023/02/16 09:44:09;;;;;;;29.85;23.02;;;9.70;99.90;;;;;;5007169;28;20483;-84
2023/02/16 09:46:36;;;;;;;31.95;24.17;;;9.90;99.90;;;;;;5007759;28;20401;-77
2023/02/16 09:49:03;;;;;;;29.60;23.35;;;9.50;99.90;;;;;;5008636;28;20395;-78
2023/02/16 09:51:39;;;;;;;29.30;23.77;;;9.60;99.90;;;;;;5007125;28;21075;-78
2023/02/16 09:54:25;;;;;;;30.13;23.65;;;9.90;99.90;;;;;;5009187;28;20406;-83
2023/02/16 09:56:59;;;;;;;31.88;25.27;;;9.90;99.90;;;;;;5008271;28;20391;-85
2023/02/16 10:00:06;;;;;;;30.38;24.20;;;9.50;99.90;;;;;;5009082;28;20876;-82
2023/02/16 10:02:53;;;;;;;31.63;24.65;;;10.10;99.90;;;;;;5005894;28;20403;-82
2023/02/16 10:05:23;;;;;;;31.67;24.98;;;10.20;99.90;;;;;;5002526;28;20391;-82
2023/02/16 10:08:38;;;;;;;31.95;25.65;;;10.80;99.90;;;;;;5008185;28;20412;-83
2023/02/16 10:14:40;;;;;;;33.25;25.27;;;9.50;99.90;;;;;;5005339;28;20382;-83
2023/02/16 10:17:44;;;;;;;34.50;24.67;;;9.70;99.90;;;;;;5003116;28;20821;-83
2023/02/16 10:20:24;;;;;;;34.40;25.33;;;10.40;99.90;;;;;;5006323;28;20417;-84
2023/02/16 10:23:13;;;;;;;32.72;24.85;;;10.80;99.90;;;;;;5004969;28;20572;-83
2023/02/16 10:25:45;;;;;;;32.15;24.73;;;11.10;99.90;;;;;;4972774;28;20387;-83
2023/02/16 10:28:37;;;;;;;31.17;24.55;;;10.60;99.90;;;;;;5006346;28;20371;-85
2023/02/16 10:35:18;;;;;;;34.73;24.47;;;11.00;99.90;;;;;;4987556;28;20491;-86
2023/02/16 10:38:03;;;;;;;32.30;25.88;;;10.90;99.90;;;;;;5008401;28;20386;-81
2023/02/16 10:41:00;;;;;;;33.60;25.88;;;10.80;99.90;;;;;;5018571;28;20877;-83
2023/02/16 10:43:56;;;;;;;32.75;25.60;;;11.00;99.90;;;;;;5013155;28;20391;-83
2023/02/16 10:46:27;;;;;;;32.92;25.40;;;11.00;99.90;;;;;;5010351;28;20388;-82
2023/02/16 10:48:54;;;;;;;33.22;26.15;;;11.20;99.90;;;;;;5013185;28;20415;-81
2023/02/16 10:51:27;;;;;;;33.53;26.48;;;11.10;99.90;;;;;;5014176;28;20429;-82
2023/02/16 10:54:30;;;;;;;35.55;27.17;;;10.60;99.90;;;;;;5010703;28;20471;-82
2023/02/16 10:57:06;;;;;;;35.53;27.25;;;10.60;99.90;;;;;;4964678;28;20454;-82
2023/02/16 10:59:42;;;;;;;34.53;27.17;;;10.80;99.90;;;;;;5010078;28;20399;-81
2023/02/16 11:02:18;;;;;;;30.77;26.02;;;11.20;99.90;;;;;;5019072;28;20389;-82
2023/02/16 11:04:47;;;;;;;32.60;25.98;;;11.30;99.90;;;;;;5020299;28;20378;-83
2023/02/16 11:07:18;;;;;;;35.60;26.33;;;11.50;99.90;;;;;;5015139;28;20410;-82
2023/02/16 11:09:50;;;;;;;34.63;28.33;;;11.30;99.90;;;;;;5008650;28;20387;-82
2023/02/16 11:12:27;;;;;;;32.67;25.85;;;11.20;99.90;;;;;;5007177;28;20498;-84
2023/02/16 11:15:16;;;;;;;36.30;26.50;;;11.40;99.90;;;;;;5004416;28;20383;-81
2023/02/16 11:17:54;;;;;;;35.53;26.63;;;11.50;99.90;;;;;;4998816;28;20865;-82
2023/02/16 11:20:41;;;;;;;35.92;27.35;;;11.10;99.90;;;;;;5008701;28;20389;-84
2023/02/16 11:23:16;;;;;;;35.75;27.10;;;11.40;99.90;;;;;;4995412;28;20406;-83
2023/02/16 11:26:13;;;;;;;34.05;26.10;;;11.40;99.90;;;;;;5009615;28;20425;-82
2023/02/16 11:28:44;;;;;;;34.63;27.20;;;11.30;99.90;;;;;;5007750;28;20402;-82
2023/02/16 11:31:31;;;;;;;35.17;27.20;;;11.50;99.90;;;;;;5015147;28;20470;-84
2023/02/16 11:34:03;;;;;;;31.88;25.30;;;11.40;99.90;;;;;;5019665;28;20394;-86
2023/02/16 11:36:35;;;;;;;32.85;25.02;;;12.40;99.90;;;;;;5021364;28;20379;-85
2023/02/16 11:39:13;;;;;;;34.22;26.95;;;12.80;99.90;;;;;;5011236;28;20394;-84
2023/02/16 11:41:51;;;;;;;34.83;27.80;;;12.30;99.90;;;;;;5015329;28;20947;-82
2023/02/16 11:44:31;;;;;;;36.00;28.42;;;11.60;99.90;;;;;;5013412;28;20440;-81
2023/02/16 11:46:59;;;;;;;36.35;28.08;;;11.60;99.90;;;;;;5016092;28;20484;-85
2023/02/16 11:49:34;;;;;;;37.60;29.98;;;11.40;99.90;;;;;;5019141;28;20775;-83
2023/02/16 11:52:25;;;;;;;37.15;28.90;;;11.10;99.90;;;;;;5013158;28;20398;-83
2023/02/16 11:54:54;;;;;;;35.22;28.38;;;11.00;99.90;;;;;;5017466;28;20397;-85
2023/02/16 11:57:47;;;;;;;38.95;30.13;;;10.80;99.90;;;;;;5016260;28;20460;-85
2023/02/16 12:00:17;;;;;;;38.42;29.27;;;10.80;99.90;;;;;;5014440;28;20449;-84
2023/02/16 12:03:40;;;;;;;36.90;28.27;;;10.90;99.90;;;;;;5011189;28;20428;-82
2023/02/16 12:06:46;;;;;;;38.60;29.27;;;10.90;99.90;;;;;;4944513;29;20404;-86
2023/02/16 12:09:42;;;;;;;35.78;29.10;;;10.90;99.90;;;;;;4966780;28;20439;-84
2023/02/16 12:12:29;;;;;;;37.10;29.47;;;11.10;99.90;;;;;;5006686;28;20434;-82
2023/02/16 12:14:55;;;;;;;37.10;28.48;;;11.10;99.90;;;;;;5005453;28;20387;-82
2023/02/16 12:17:26;;;;;;;35.80;28.50;;;11.10;99.90;;;;;;5008461;28;20388;-85
2023/02/16 12:20:21;;;;;;;37.60;29.05;;;11.10;99.90;;;;;;5005249;28;20553;-84
2023/02/16 12:22:50;;;;;;;39.30;28.73;;;11.00;99.90;;;;;;5006239;28;20394;-82
2023/02/16 12:25:54;;;;;;;34.80;27.67;;;10.90;99.90;;;;;;5008595;28;20379;-86
2023/02/16 12:28:50;;;;;;;36.95;28.42;;;10.90;99.90;;;;;;4979243;28;20573;-82
2023/02/16 12:31:57;;;;;;;36.85;29.40;;;10.80;99.90;;;;;;5007262;28;20407;-82
2023/02/16 12:34:45;;;;;;;34.20;28.05;;;10.60;99.90;;;;;;5005615;28;20995;-81
2023/02/16 12:37:32;;;;;;;37.95;28.42;;;10.60;99.90;;;;;;5005567;28;20782;-82
2023/02/16 12:40:10;;;;;;;35.30;28.07;;;10.70;99.90;;;;;;5000350;28;20862;-83
2023/02/16 12:43:23;;;;;;;37.67;28.17;;;11.00;99.90;;;;;;5003976;28;20466;-84
2023/02/16 12:45:49;;;;;;;35.15;27.38;;;11.00;99.90;;;;;;4997124;28;20411;-84
2023/02/16 12:48:39;;;;;;;35.83;27.83;;;11.30;99.90;;;;;;5009672;28;20415;-84
2023/02/16 12:51:11;;;;;;;39.00;28.58;;;11.40;99.90;;;;;;5001929;28;20530;-83
2023/02/16 12:53:46;;;;;;;34.05;27.67;;;11.30;99.90;;;;;;5013123;28;20464;-84
2023/02/16 12:56:18;;;;;;;34.92;28.27;;;11.30;99.90;;;;;;5014789;28;20921;-84
2023/02/16 12:58:48;;;;;;;35.13;27.73;;;11.30;99.90;;;;;;5011953;28;20470;-85
2023/02/16 13:01:28;;;;;;;35.05;26.98;;;11.00;99.90;;;;;;5008011;28;20442;-83
2023/02/16 13:04:22;;;;;;;35.38;27.00;;;11.00;99.90;;;;;;5014141;28;20887;-81
2023/02/16 13:07:16;;;;;;;35.88;27.83;;;11.30;99.90;;;;;;5015754;28;20437;-84
2023/02/16 13:10:21;;;;;;;33.45;26.40;;;11.50;99.90;;;;;;5019291;28;20414;-85
2023/02/16 13:12:52;;;;;;;33.15;26.45;;;11.70;99.90;;;;;;5020006;28;20414;-84
2023/02/16 13:15:29;;;;;;;34.73;26.30;;;11.90;99.90;;;;;;5018845;28;20379;-80
2023/02/16 13:17:59;;;;;;;31.60;25.08;;;12.00;99.90;;;;;;5018870;28;20407;-84
2023/02/16 13:20:26;;;;;;;35.25;26.15;;;11.90;99.90;;;;;;5010344;28;20382;-83
2023/02/16 13:23:22;;;;;;;32.25;25.40;;;12.10;99.90;;;;;;5011298;28;20561;-83
2023/02/16 13:25:51;;;;;;;35.55;26.35;;;11.90;99.90;;;;;;5018095;28;20378;-84
2023/02/16 13:28:38;;;;;;;34.50;25.33;;;11.50;99.90;;;;;;5018604;28;20749;-81
2023/02/16 13:31:31;;;;;;;35.40;26.38;;;11.40;99.90;;;;;;5016795;28;20410;-81
2023/02/16 13:34:22;;;;;;;32.85;25.52;;;11.40;99.90;;;;;;5015204;28;20592;-85
2023/02/16 13:37:08;;;;;;;34.97;25.73;;;11.50;99.90;;;;;;5016258;28;20399;-84
2023/02/16 13:39:37;;;;;;;32.33;24.97;;;11.40;99.90;;;;;;5020015;28;20916;-83
2023/02/16 13:42:19;;;;;;;36.38;25.10;;;11.50;99.90;;;;;;5000791;28;20407;-85
2023/02/16 13:45:12;;;;;;;30.98;25.08;;;11.50;99.90;;;;;;5016877;28;20900;-82
2023/02/16 13:47:40;;;;;;;31.30;24.38;;;11.60;99.90;;;;;;5008431;28;20940;-83
2023/02/16 13:50:35;;;;;;;29.90;23.63;;;11.80;99.90;;;;;;5009318;28;20497;-84
2023/02/16 13:53:17;;;;;;;34.83;24.45;;;12.00;99.90;;;;;;4999577;28;20488;-82
2023/02/16 13:55:45;;;;;;;32.22;24.60;;;11.90;99.90;;;;;;5007595;28;20462;-82